sensor_id;sensor_type;location;lat;lon;timestamp;temperature;humidity
12819;DHT22;6474;53.474;9.894;2023-07-30T00:00:49;18.20;82.30
12819;DHT22;6474;53.474;9.894;2023-07-30T00:03:18;18.20;82.30
12819;DHT22;6474;53.474;9.894;2023-07-30T00:05:52;18.20;82.40
12819;DHT22;6474;53.474;9.894;2023-07-30T00:08:22;18.10;82.30
12819;DHT22;6474;53.474;9.894;2023-07-30T00:10:50;18.10;82.40
12819;DHT22;6474;53.474;9.894;2023-07-30T00:13:18;18.10;82.40
12819;DHT22;6474;53.474;9.894;2023-07-30T00:15:48;18.10;82.50
12819;DHT22;6474;53.474;9.894;2023-07-30T00:18:16;18.10;82.50
12819;DHT22;6474;53.474;9.894;2023-07-30T00:20:43;18.10;82.60
12819;DHT22;6474;53.474;9.894;2023-07-30T00:23:12;18.10;82.50
12819;DHT22;6474;53.474;9.894;2023-07-30T00:25:40;18.10;82.50
12819;DHT22;6474;53.474;9.894;2023-07-30T00:28:08;18.10;82.40
12819;DHT22;6474;53.474;9.894;2023-07-30T00:30:37;18.10;82.40
12819;DHT22;6474;53.474;9.894;2023-07-30T00:33:08;18.10;82.40
12819;DHT22;6474;53.474;9.894;2023-07-30T00:35:36;18.10;82.40
12819;DHT22;6474;53.474;9.894;2023-07-30T00:38:04;18.10;82.40
12819;DHT22;6474;53.474;9.894;2023-07-30T00:40:40;18.20;82.50
12819;DHT22;6474;53.474;9.894;2023-07-30T00:43:08;18.20;82.50
12819;DHT22;6474;53.474;9.894;2023-07-30T00:45:38;18.20;82.40
12819;DHT22;6474;53.474;9.894;2023-07-30T00:48:10;18.20;82.40
12819;DHT22;6474;53.474;9.894;2023-07-30T00:50:39;18.20;82.40
12819;DHT22;6474;53.474;9.894;2023-07-30T00:53:09;18.20;82.40
12819;DHT22;6474;53.474;9.894;2023-07-30T00:55:41;18.20;82.40
12819;DHT22;6474;53.474;9.894;2023-07-30T00:58:12;18.20;82.40
12819;DHT22;6474;53.474;9.894;2023-07-30T01:00:40;18.20;82.40
12819;DHT22;6474;53.474;9.894;2023-07-30T01:03:10;18.20;82.40
12819;DHT22;6474;53.474;9.894;2023-07-30T01:05:38;18.20;82.40
12819;DHT22;6474;53.474;9.894;2023-07-30T01:08:07;18.10;82.30
12819;DHT22;6474;53.474;9.894;2023-07-30T01:10:35;18.10;82.30
12819;DHT22;6474;53.474;9.894;2023-07-30T01:13:05;18.00;82.20
12819;DHT22;6474;53.474;9.894;2023-07-30T01:15:34;18.00;82.30
12819;DHT22;6474;53.474;9.894;2023-07-30T01:18:06;17.90;82.40
12819;DHT22;6474;53.474;9.894;2023-07-30T01:20:36;17.90;82.50
12819;DHT22;6474;53.474;9.894;2023-07-30T01:23:08;17.80;82.50
12819;DHT22;6474;53.474;9.894;2023-07-30T01:25:36;17.80;82.50
12819;DHT22;6474;53.474;9.894;2023-07-30T01:28:05;17.70;82.50
12819;DHT22;6474;53.474;9.894;2023-07-30T01:30:40;17.70;82.60
12819;DHT22;6474;53.474;9.894;2023-07-30T01:33:11;17.60;82.60
12819;DHT22;6474;53.474;9.894;2023-07-30T01:35:42;17.60;82.70
12819;DHT22;6474;53.474;9.894;2023-07-30T01:38:14;17.50;82.70
12819;DHT22;6474;53.474;9.894;2023-07-30T01:40:42;17.50;82.90
12819;DHT22;6474;53.474;9.894;2023-07-30T01:43:11;17.40;82.90
12819;DHT22;6474;53.474;9.894;2023-07-30T01:45:39;17.40;82.90
12819;DHT22;6474;53.474;9.894;2023-07-30T01:48:08;17.40;83.00
12819;DHT22;6474;53.474;9.894;2023-07-30T01:50:38;17.40;83.00
12819;DHT22;6474;53.474;9.894;2023-07-30T01:53:06;17.40;83.00
12819;DHT22;6474;53.474;9.894;2023-07-30T01:55:35;17.40;83.10
12819;DHT22;6474;53.474;9.894;2023-07-30T01:58:05;17.40;83.00
12819;DHT22;6474;53.474;9.894;2023-07-30T02:00:33;17.50;83.10
12819;DHT22;6474;53.474;9.894;2023-07-30T02:03:01;17.40;82.90
12819;DHT22;6474;53.474;9.894;2023-07-30T02:05:30;17.40;83.00
12819;DHT22;6474;53.474;9.894;2023-07-30T02:07:59;17.50;83.10
12819;DHT22;6474;53.474;9.894;2023-07-30T02:10:27;17.40;82.90
12819;DHT22;6474;53.474;9.894;2023-07-30T02:12:56;17.40;82.90
12819;DHT22;6474;53.474;9.894;2023-07-30T02:15:24;17.40;82.90
12819;DHT22;6474;53.474;9.894;2023-07-30T02:17:52;17.40;82.90
12819;DHT22;6474;53.474;9.894;2023-07-30T02:20:23;17.40;82.90
12819;DHT22;6474;53.474;9.894;2023-07-30T02:22:51;17.30;82.80
12819;DHT22;6474;53.474;9.894;2023-07-30T02:25:19;17.30;82.80
12819;DHT22;6474;53.474;9.894;2023-07-30T02:27:47;17.30;82.90
12819;DHT22;6474;53.474;9.894;2023-07-30T02:30:18;17.30;82.80
12819;DHT22;6474;53.474;9.894;2023-07-30T02:32:47;17.30;82.90
12819;DHT22;6474;53.474;9.894;2023-07-30T02:35:15;17.30;82.90
12819;DHT22;6474;53.474;9.894;2023-07-30T02:37:43;17.20;82.80
12819;DHT22;6474;53.474;9.894;2023-07-30T02:40:11;17.20;82.80
12819;DHT22;6474;53.474;9.894;2023-07-30T02:42:41;17.20;82.90
12819;DHT22;6474;53.474;9.894;2023-07-30T02:45:11;17.10;82.90
12819;DHT22;6474;53.474;9.894;2023-07-30T02:47:40;17.10;83.10
12819;DHT22;6474;53.474;9.894;2023-07-30T02:50:09;17.10;83.00
12819;DHT22;6474;53.474;9.894;2023-07-30T02:52:37;17.10;83.00
12819;DHT22;6474;53.474;9.894;2023-07-30T02:55:05;17.00;83.00
12819;DHT22;6474;53.474;9.894;2023-07-30T02:57:34;17.00;83.10
12819;DHT22;6474;53.474;9.894;2023-07-30T03:00:02;17.00;83.10
12819;DHT22;6474;53.474;9.894;2023-07-30T03:02:31;17.00;83.10
12819;DHT22;6474;53.474;9.894;2023-07-30T03:05:01;16.90;83.10
12819;DHT22;6474;53.474;9.894;2023-07-30T03:07:29;16.90;83.10
12819;DHT22;6474;53.474;9.894;2023-07-30T03:09:57;16.90;83.10
12819;DHT22;6474;53.474;9.894;2023-07-30T03:12:25;16.90;83.00
12819;DHT22;6474;53.474;9.894;2023-07-30T03:14:54;16.90;83.00
12819;DHT22;6474;53.474;9.894;2023-07-30T03:17:22;16.90;83.10
12819;DHT22;6474;53.474;9.894;2023-07-30T03:19:51;16.80;83.00
12819;DHT22;6474;53.474;9.894;2023-07-30T03:22:23;16.80;83.10
12819;DHT22;6474;53.474;9.894;2023-07-30T03:24:51;16.80;83.00
12819;DHT22;6474;53.474;9.894;2023-07-30T03:27:23;16.80;83.10
12819;DHT22;6474;53.474;9.894;2023-07-30T03:29:51;16.70;83.10
12819;DHT22;6474;53.474;9.894;2023-07-30T03:32:20;16.70;83.10
12819;DHT22;6474;53.474;9.894;2023-07-30T03:34:48;16.70;83.10
12819;DHT22;6474;53.474;9.894;2023-07-30T03:37:17;16.70;83.10
12819;DHT22;6474;53.474;9.894;2023-07-30T03:39:46;16.70;83.10
12819;DHT22;6474;53.474;9.894;2023-07-30T03:42:14;16.70;83.10
12819;DHT22;6474;53.474;9.894;2023-07-30T03:44:43;16.70;83.10
12819;DHT22;6474;53.474;9.894;2023-07-30T03:47:11;16.60;83.10
12819;DHT22;6474;53.474;9.894;2023-07-30T03:49:39;16.60;83.10
12819;DHT22;6474;53.474;9.894;2023-07-30T03:52:07;16.60;83.10
12819;DHT22;6474;53.474;9.894;2023-07-30T03:54:36;16.60;83.10
12819;DHT22;6474;53.474;9.894;2023-07-30T03:57:06;16.60;83.10
12819;DHT22;6474;53.474;9.894;2023-07-30T03:59:34;16.60;83.10
12819;DHT22;6474;53.474;9.894;2023-07-30T04:02:04;16.60;83.10
12819;DHT22;6474;53.474;9.894;2023-07-30T04:04:32;16.60;83.10
12819;DHT22;6474;53.474;9.894;2023-07-30T04:06:59;16.70;83.10
12819;DHT22;6474;53.474;9.894;2023-07-30T04:09:29;16.70;83.10
12819;DHT22;6474;53.474;9.894;2023-07-30T04:11:57;16.70;83.10
12819;DHT22;6474;53.474;9.894;2023-07-30T04:14:26;16.70;83.00
12819;DHT22;6474;53.474;9.894;2023-07-30T04:16:54;16.70;83.00
12819;DHT22;6474;53.474;9.894;2023-07-30T04:19:24;16.70;83.00
12819;DHT22;6474;53.474;9.894;2023-07-30T04:21:55;16.80;83.20
12819;DHT22;6474;53.474;9.894;2023-07-30T04:24:23;16.80;83.30
12819;DHT22;6474;53.474;9.894;2023-07-30T04:26:53;16.80;83.30
12819;DHT22;6474;53.474;9.894;2023-07-30T04:29:22;16.90;83.40
12819;DHT22;6474;53.474;9.894;2023-07-30T04:31:53;16.90;83.50
12819;DHT22;6474;53.474;9.894;2023-07-30T04:34:21;17.00;83.60
12819;DHT22;6474;53.474;9.894;2023-07-30T04:36:49;17.00;83.40
12819;DHT22;6474;53.474;9.894;2023-07-30T04:39:18;17.00;83.30
12819;DHT22;6474;53.474;9.894;2023-07-30T04:41:46;17.00;83.30
12819;DHT22;6474;53.474;9.894;2023-07-30T04:44:15;17.10;83.40
12819;DHT22;6474;53.474;9.894;2023-07-30T04:46:43;17.10;83.40
12819;DHT22;6474;53.474;9.894;2023-07-30T04:49:13;17.10;83.50
12819;DHT22;6474;53.474;9.894;2023-07-30T04:51:46;17.10;83.50
12819;DHT22;6474;53.474;9.894;2023-07-30T04:54:16;17.20;83.60
12819;DHT22;6474;53.474;9.894;2023-07-30T04:56:49;17.30;83.70
12819;DHT22;6474;53.474;9.894;2023-07-30T04:59:18;17.30;83.70
12819;DHT22;6474;53.474;9.894;2023-07-30T05:01:47;17.40;83.70
12819;DHT22;6474;53.474;9.894;2023-07-30T05:04:17;17.40;83.70
12819;DHT22;6474;53.474;9.894;2023-07-30T05:06:46;17.50;83.80
12819;DHT22;6474;53.474;9.894;2023-07-30T05:09:15;17.50;83.60
12819;DHT22;6474;53.474;9.894;2023-07-30T05:11:43;17.60;83.70
12819;DHT22;6474;53.474;9.894;2023-07-30T05:14:18;17.60;83.50
12819;DHT22;6474;53.474;9.894;2023-07-30T05:16:47;17.60;83.30
12819;DHT22;6474;53.474;9.894;2023-07-30T05:19:20;17.60;83.40
12819;DHT22;6474;53.474;9.894;2023-07-30T05:21:49;17.60;83.50
12819;DHT22;6474;53.474;9.894;2023-07-30T05:24:17;17.60;83.60
12819;DHT22;6474;53.474;9.894;2023-07-30T05:26:48;17.60;83.70
12819;DHT22;6474;53.474;9.894;2023-07-30T05:29:17;17.70;84.50
12819;DHT22;6474;53.474;9.894;2023-07-30T05:31:46;17.70;83.70
12819;DHT22;6474;53.474;9.894;2023-07-30T05:34:19;17.80;83.90
12819;DHT22;6474;53.474;9.894;2023-07-30T05:36:48;17.80;83.90
12819;DHT22;6474;53.474;9.894;2023-07-30T05:39:16;17.90;84.00
12819;DHT22;6474;53.474;9.894;2023-07-30T05:41:45;17.90;83.90
12819;DHT22;6474;53.474;9.894;2023-07-30T05:44:19;18.00;83.90
12819;DHT22;6474;53.474;9.894;2023-07-30T05:46:48;18.00;83.70
12819;DHT22;6474;53.474;9.894;2023-07-30T05:49:16;18.00;83.60
12819;DHT22;6474;53.474;9.894;2023-07-30T05:51:46;18.00;83.60
12819;DHT22;6474;53.474;9.894;2023-07-30T05:54:15;18.00;83.50
12819;DHT22;6474;53.474;9.894;2023-07-30T05:56:45;18.00;83.40
12819;DHT22;6474;53.474;9.894;2023-07-30T05:59:16;18.00;83.40
12819;DHT22;6474;53.474;9.894;2023-07-30T06:01:48;18.00;83.30
12819;DHT22;6474;53.474;9.894;2023-07-30T06:04:17;18.00;83.30
12819;DHT22;6474;53.474;9.894;2023-07-30T06:06:50;18.00;83.30
12819;DHT22;6474;53.474;9.894;2023-07-30T06:09:22;18.00;83.20
12819;DHT22;6474;53.474;9.894;2023-07-30T06:11:57;18.10;83.30
12819;DHT22;6474;53.474;9.894;2023-07-30T06:14:27;18.10;83.40
12819;DHT22;6474;53.474;9.894;2023-07-30T06:16:55;18.10;83.40
12819;DHT22;6474;53.474;9.894;2023-07-30T06:19:23;18.10;83.80
12819;DHT22;6474;53.474;9.894;2023-07-30T06:21:55;18.20;83.50
12819;DHT22;6474;53.474;9.894;2023-07-30T06:24:23;18.20;83.50
12819;DHT22;6474;53.474;9.894;2023-07-30T06:26:53;18.30;83.60
12819;DHT22;6474;53.474;9.894;2023-07-30T06:29:23;18.30;83.60
12819;DHT22;6474;53.474;9.894;2023-07-30T06:31:52;18.40;83.60
12819;DHT22;6474;53.474;9.894;2023-07-30T06:34:20;18.40;83.60
12819;DHT22;6474;53.474;9.894;2023-07-30T06:36:48;18.50;83.70
12819;DHT22;6474;53.474;9.894;2023-07-30T06:39:28;18.50;83.70
12819;DHT22;6474;53.474;9.894;2023-07-30T06:41:56;18.60;83.70
12819;DHT22;6474;53.474;9.894;2023-07-30T06:44:24;18.70;83.80
12819;DHT22;6474;53.474;9.894;2023-07-30T06:46:53;18.70;83.70
12819;DHT22;6474;53.474;9.894;2023-07-30T06:49:22;18.80;83.70
12819;DHT22;6474;53.474;9.894;2023-07-30T06:51:51;18.80;83.60
12819;DHT22;6474;53.474;9.894;2023-07-30T06:54:22;18.90;83.60
12819;DHT22;6474;53.474;9.894;2023-07-30T06:56:59;19.00;83.70
12819;DHT22;6474;53.474;9.894;2023-07-30T06:59:30;19.10;83.80
12819;DHT22;6474;53.474;9.894;2023-07-30T07:02:04;19.20;83.80
12819;DHT22;6474;53.474;9.894;2023-07-30T07:04:36;19.30;83.80
12819;DHT22;6474;53.474;9.894;2023-07-30T07:07:06;19.30;83.60
12819;DHT22;6474;53.474;9.894;2023-07-30T07:09:36;19.40;83.70
12819;DHT22;6474;53.474;9.894;2023-07-30T07:12:05;19.40;83.80
12819;DHT22;6474;53.474;9.894;2023-07-30T07:14:35;19.50;83.70
12819;DHT22;6474;53.474;9.894;2023-07-30T07:17:03;19.50;83.70
12819;DHT22;6474;53.474;9.894;2023-07-30T07:19:31;19.60;83.90
12819;DHT22;6474;53.474;9.894;2023-07-30T07:22:04;19.60;83.90
12819;DHT22;6474;53.474;9.894;2023-07-30T07:24:32;19.70;83.80
12819;DHT22;6474;53.474;9.894;2023-07-30T07:27:02;19.80;83.80
12819;DHT22;6474;53.474;9.894;2023-07-30T07:29:30;19.80;83.70
12819;DHT22;6474;53.474;9.894;2023-07-30T07:31:58;19.80;83.60
12819;DHT22;6474;53.474;9.894;2023-07-30T07:34:26;19.80;83.60
12819;DHT22;6474;53.474;9.894;2023-07-30T07:36:55;19.80;83.60
12819;DHT22;6474;53.474;9.894;2023-07-30T07:39:23;19.80;83.40
12819;DHT22;6474;53.474;9.894;2023-07-30T07:41:51;19.90;83.60
12819;DHT22;6474;53.474;9.894;2023-07-30T07:44:22;19.90;83.40
12819;DHT22;6474;53.474;9.894;2023-07-30T07:46:51;20.00;83.40
12819;DHT22;6474;53.474;9.894;2023-07-30T07:49:19;20.00;83.40
12819;DHT22;6474;53.474;9.894;2023-07-30T07:51:47;20.00;83.10
12819;DHT22;6474;53.474;9.894;2023-07-30T07:54:16;19.90;82.90
12819;DHT22;6474;53.474;9.894;2023-07-30T07:56:45;19.90;83.40
12819;DHT22;6474;53.474;9.894;2023-07-30T07:59:13;19.80;83.60
12819;DHT22;6474;53.474;9.894;2023-07-30T08:01:45;19.80;83.80
12819;DHT22;6474;53.474;9.894;2023-07-30T08:04:13;19.90;84.00
12819;DHT22;6474;53.474;9.894;2023-07-30T08:06:42;19.90;84.20
12819;DHT22;6474;53.474;9.894;2023-07-30T08:09:10;20.00;84.30
12819;DHT22;6474;53.474;9.894;2023-07-30T08:11:39;20.10;84.30
12819;DHT22;6474;53.474;9.894;2023-07-30T08:14:08;20.20;84.20
12819;DHT22;6474;53.474;9.894;2023-07-30T08:16:37;20.30;84.30
12819;DHT22;6474;53.474;9.894;2023-07-30T08:19:10;20.30;84.10
12819;DHT22;6474;53.474;9.894;2023-07-30T08:21:46;20.30;84.00
12819;DHT22;6474;53.474;9.894;2023-07-30T08:24:15;20.30;84.00
12819;DHT22;6474;53.474;9.894;2023-07-30T08:26:46;20.40;84.10
12819;DHT22;6474;53.474;9.894;2023-07-30T08:29:14;20.50;83.90
12819;DHT22;6474;53.474;9.894;2023-07-30T08:31:42;20.50;83.40
12819;DHT22;6474;53.474;9.894;2023-07-30T08:34:13;20.60;83.50
12819;DHT22;6474;53.474;9.894;2023-07-30T08:36:41;20.60;83.50
12819;DHT22;6474;53.474;9.894;2023-07-30T08:39:10;20.70;83.60
12819;DHT22;6474;53.474;9.894;2023-07-30T08:41:38;20.80;83.70
12819;DHT22;6474;53.474;9.894;2023-07-30T08:44:09;20.90;83.80
12819;DHT22;6474;53.474;9.894;2023-07-30T08:46:37;21.00;83.90
12819;DHT22;6474;53.474;9.894;2023-07-30T08:49:06;21.00;83.90
12819;DHT22;6474;53.474;9.894;2023-07-30T08:51:36;21.10;84.00
12819;DHT22;6474;53.474;9.894;2023-07-30T08:54:06;21.10;84.00
12819;DHT22;6474;53.474;9.894;2023-07-30T08:56:35;21.10;84.00
12819;DHT22;6474;53.474;9.894;2023-07-30T08:59:03;20.90;83.80
12819;DHT22;6474;53.474;9.894;2023-07-30T09:01:37;20.90;83.80
12819;DHT22;6474;53.474;9.894;2023-07-30T09:04:07;21.00;83.90
12819;DHT22;6474;53.474;9.894;2023-07-30T09:06:37;21.00;83.90
12819;DHT22;6474;53.474;9.894;2023-07-30T09:09:05;21.10;84.00
12819;DHT22;6474;53.474;9.894;2023-07-30T09:11:34;21.20;84.10
12819;DHT22;6474;53.474;9.894;2023-07-30T09:14:05;21.30;84.20
12819;DHT22;6474;53.474;9.894;2023-07-30T09:16:34;21.40;84.40
12819;DHT22;6474;53.474;9.894;2023-07-30T09:19:02;21.40;84.40
12819;DHT22;6474;53.474;9.894;2023-07-30T09:21:31;21.60;84.60
12819;DHT22;6474;53.474;9.894;2023-07-30T09:24:02;21.60;84.50
12819;DHT22;6474;53.474;9.894;2023-07-30T09:26:46;21.70;84.30
12819;DHT22;6474;53.474;9.894;2023-07-30T09:29:14;21.80;84.30
12819;DHT22;6474;53.474;9.894;2023-07-30T09:31:49;21.90;84.30
12819;DHT22;6474;53.474;9.894;2023-07-30T09:34:18;21.90;84.20
12819;DHT22;6474;53.474;9.894;2023-07-30T09:36:47;21.90;84.30
12819;DHT22;6474;53.474;9.894;2023-07-30T09:39:21;21.90;85.10
12819;DHT22;6474;53.474;9.894;2023-07-30T09:41:50;21.80;84.30
12819;DHT22;6474;53.474;9.894;2023-07-30T09:44:20;21.90;84.40
12819;DHT22;6474;53.474;9.894;2023-07-30T09:46:49;21.80;84.30
12819;DHT22;6474;53.474;9.894;2023-07-30T09:49:19;21.90;84.40
12819;DHT22;6474;53.474;9.894;2023-07-30T09:51:50;21.90;84.10
12819;DHT22;6474;53.474;9.894;2023-07-30T09:54:21;21.90;84.20
12819;DHT22;6474;53.474;9.894;2023-07-30T09:56:49;21.90;84.10
12819;DHT22;6474;53.474;9.894;2023-07-30T09:59:18;21.80;84.20
12819;DHT22;6474;53.474;9.894;2023-07-30T10:01:48;21.80;84.10
12819;DHT22;6474;53.474;9.894;2023-07-30T10:04:19;21.80;84.20
12819;DHT22;6474;53.474;9.894;2023-07-30T10:06:53;21.70;84.20
12819;DHT22;6474;53.474;9.894;2023-07-30T10:09:28;21.70;84.20
12819;DHT22;6474;53.474;9.894;2023-07-30T10:12:06;21.70;84.50
12819;DHT22;6474;53.474;9.894;2023-07-30T10:14:37;21.70;84.60
12819;DHT22;6474;53.474;9.894;2023-07-30T10:17:10;21.70;84.60
12819;DHT22;6474;53.474;9.894;2023-07-30T10:19:41;21.80;84.50
12819;DHT22;6474;53.474;9.894;2023-07-30T10:22:21;21.90;84.40
12819;DHT22;6474;53.474;9.894;2023-07-30T10:25:04;22.00;84.40
12819;DHT22;6474;53.474;9.894;2023-07-30T10:27:38;22.00;84.20
12819;DHT22;6474;53.474;9.894;2023-07-30T10:30:11;22.20;84.30
12819;DHT22;6474;53.474;9.894;2023-07-30T10:32:41;22.30;84.20
12819;DHT22;6474;53.474;9.894;2023-07-30T10:35:36;22.30;83.80
12819;DHT22;6474;53.474;9.894;2023-07-30T10:38:19;22.40;83.90
12819;DHT22;6474;53.474;9.894;2023-07-30T10:41:04;22.40;83.70
12819;DHT22;6474;53.474;9.894;2023-07-30T10:43:35;22.20;83.60
12819;DHT22;6474;53.474;9.894;2023-07-30T10:46:06;22.20;83.70
12819;DHT22;6474;53.474;9.894;2023-07-30T10:48:37;22.20;83.90
12819;DHT22;6474;53.474;9.894;2023-07-30T10:51:09;22.20;83.90
12819;DHT22;6474;53.474;9.894;2023-07-30T10:53:38;22.20;83.70
12819;DHT22;6474;53.474;9.894;2023-07-30T10:56:09;22.20;83.70
12819;DHT22;6474;53.474;9.894;2023-07-30T10:58:38;22.20;83.70
12819;DHT22;6474;53.474;9.894;2023-07-30T11:01:08;22.20;83.80
12819;DHT22;6474;53.474;9.894;2023-07-30T11:03:39;22.10;83.80
12819;DHT22;6474;53.474;9.894;2023-07-30T11:06:11;22.20;83.90
12819;DHT22;6474;53.474;9.894;2023-07-30T11:08:41;22.20;83.90
12819;DHT22;6474;53.474;9.894;2023-07-30T11:11:11;22.30;83.80
12819;DHT22;6474;53.474;9.894;2023-07-30T11:13:42;22.40;83.60
12819;DHT22;6474;53.474;9.894;2023-07-30T11:16:10;22.60;83.60
12819;DHT22;6474;53.474;9.894;2023-07-30T11:18:40;22.70;83.20
12819;DHT22;6474;53.474;9.894;2023-07-30T11:21:12;22.80;83.10
12819;DHT22;6474;53.474;9.894;2023-07-30T11:23:54;22.80;82.80
12819;DHT22;6474;53.474;9.894;2023-07-30T11:26:26;22.80;82.70
12819;DHT22;6474;53.474;9.894;2023-07-30T11:28:53;22.80;82.60
12819;DHT22;6474;53.474;9.894;2023-07-30T11:31:23;22.80;82.50
12819;DHT22;6474;53.474;9.894;2023-07-30T11:33:54;22.80;82.50
12819;DHT22;6474;53.474;9.894;2023-07-30T11:36:23;22.80;82.30
12819;DHT22;6474;53.474;9.894;2023-07-30T11:38:52;22.70;82.20
12819;DHT22;6474;53.474;9.894;2023-07-30T11:41:23;22.70;82.20
12819;DHT22;6474;53.474;9.894;2023-07-30T11:43:53;22.70;82.10
12819;DHT22;6474;53.474;9.894;2023-07-30T11:46:21;22.60;81.70
12819;DHT22;6474;53.474;9.894;2023-07-30T11:48:52;22.50;81.80
12819;DHT22;6474;53.474;9.894;2023-07-30T11:51:22;22.50;82.00
12819;DHT22;6474;53.474;9.894;2023-07-30T11:53:54;22.40;81.90
12819;DHT22;6474;53.474;9.894;2023-07-30T11:56:24;22.40;82.10
12819;DHT22;6474;53.474;9.894;2023-07-30T11:58:57;22.50;82.10
12819;DHT22;6474;53.474;9.894;2023-07-30T12:01:31;22.60;81.90
12819;DHT22;6474;53.474;9.894;2023-07-30T12:04:03;22.60;81.90
12819;DHT22;6474;53.474;9.894;2023-07-30T12:06:39;22.70;81.90
12819;DHT22;6474;53.474;9.894;2023-07-30T12:09:13;22.80;81.80
12819;DHT22;6474;53.474;9.894;2023-07-30T12:11:50;22.90;81.70
12819;DHT22;6474;53.474;9.894;2023-07-30T12:14:28;22.90;81.40
12819;DHT22;6474;53.474;9.894;2023-07-30T12:16:58;22.90;81.40
12819;DHT22;6474;53.474;9.894;2023-07-30T12:19:26;22.90;81.40
12819;DHT22;6474;53.474;9.894;2023-07-30T12:21:56;23.00;81.60
12819;DHT22;6474;53.474;9.894;2023-07-30T12:24:24;23.10;81.30
12819;DHT22;6474;53.474;9.894;2023-07-30T12:26:54;23.20;81.40
12819;DHT22;6474;53.474;9.894;2023-07-30T12:29:24;23.50;81.30
12819;DHT22;6474;53.474;9.894;2023-07-30T12:31:55;23.60;81.10
12819;DHT22;6474;53.474;9.894;2023-07-30T12:34:24;23.70;80.90
12819;DHT22;6474;53.474;9.894;2023-07-30T12:36:53;23.70;80.70
12819;DHT22;6474;53.474;9.894;2023-07-30T12:39:23;23.80;80.70
12819;DHT22;6474;53.474;9.894;2023-07-30T12:41:51;23.80;80.60
12819;DHT22;6474;53.474;9.894;2023-07-30T12:44:19;23.80;80.80
12819;DHT22;6474;53.474;9.894;2023-07-30T12:46:49;24.00;81.00
12819;DHT22;6474;53.474;9.894;2023-07-30T12:49:19;24.10;80.90
12819;DHT22;6474;53.474;9.894;2023-07-30T12:51:47;24.10;80.60
12819;DHT22;6474;53.474;9.894;2023-07-30T12:54:16;24.00;80.70
12819;DHT22;6474;53.474;9.894;2023-07-30T12:56:44;24.00;80.90
12819;DHT22;6474;53.474;9.894;2023-07-30T12:59:16;23.90;80.70
12819;DHT22;6474;53.474;9.894;2023-07-30T13:01:44;23.70;80.60
12819;DHT22;6474;53.474;9.894;2023-07-30T13:04:14;23.50;80.80
12819;DHT22;6474;53.474;9.894;2023-07-30T13:06:45;23.20;80.90
12819;DHT22;6474;53.474;9.894;2023-07-30T13:09:13;23.00;80.90
12819;DHT22;6474;53.474;9.894;2023-07-30T13:11:41;22.40;79.40
12819;DHT22;6474;53.474;9.894;2023-07-30T13:14:09;21.50;79.10
12819;DHT22;6474;53.474;9.894;2023-07-30T13:16:37;20.50;80.40
12819;DHT22;6474;53.474;9.894;2023-07-30T13:19:05;19.90;82.10
12819;DHT22;6474;53.474;9.894;2023-07-30T13:21:33;19.50;82.90
12819;DHT22;6474;53.474;9.894;2023-07-30T13:24:05;19.20;83.60
12819;DHT22;6474;53.474;9.894;2023-07-30T13:26:34;18.90;83.70
12819;DHT22;6474;53.474;9.894;2023-07-30T13:29:02;18.70;83.90
12819;DHT22;6474;53.474;9.894;2023-07-30T13:31:30;18.40;83.80
12819;DHT22;6474;53.474;9.894;2023-07-30T13:34:01;18.20;83.70
12819;DHT22;6474;53.474;9.894;2023-07-30T13:36:29;18.10;84.10
12819;DHT22;6474;53.474;9.894;2023-07-30T13:38:57;18.00;84.10
12819;DHT22;6474;53.474;9.894;2023-07-30T13:41:26;17.90;84.20
12819;DHT22;6474;53.474;9.894;2023-07-30T13:43:54;17.90;84.20
12819;DHT22;6474;53.474;9.894;2023-07-30T13:46:22;17.90;84.10
12819;DHT22;6474;53.474;9.894;2023-07-30T13:48:50;17.90;83.80
12819;DHT22;6474;53.474;9.894;2023-07-30T13:51:18;18.00;83.80
12819;DHT22;6474;53.474;9.894;2023-07-30T13:53:46;18.10;83.80
12819;DHT22;6474;53.474;9.894;2023-07-30T13:56:14;18.20;83.50
12819;DHT22;6474;53.474;9.894;2023-07-30T13:58:43;18.20;83.40
12819;DHT22;6474;53.474;9.894;2023-07-30T14:01:11;18.30;83.40
12819;DHT22;6474;53.474;9.894;2023-07-30T14:03:40;18.50;83.40
12819;DHT22;6474;53.474;9.894;2023-07-30T14:06:08;18.70;83.40
12819;DHT22;6474;53.474;9.894;2023-07-30T14:08:37;18.80;83.00
12819;DHT22;6474;53.474;9.894;2023-07-30T14:11:04;19.00;83.00
12819;DHT22;6474;53.474;9.894;2023-07-30T14:13:33;19.20;82.80
12819;DHT22;6474;53.474;9.894;2023-07-30T14:16:02;19.50;82.30
12819;DHT22;6474;53.474;9.894;2023-07-30T14:18:30;19.70;82.50
12819;DHT22;6474;53.474;9.894;2023-07-30T14:20:59;19.90;82.00
12819;DHT22;6474;53.474;9.894;2023-07-30T14:23:29;20.10;81.60
12819;DHT22;6474;53.474;9.894;2023-07-30T14:25:57;20.20;81.20
12819;DHT22;6474;53.474;9.894;2023-07-30T14:28:27;20.30;80.80
12819;DHT22;6474;53.474;9.894;2023-07-30T14:30:55;20.30;80.60
12819;DHT22;6474;53.474;9.894;2023-07-30T14:33:25;20.30;80.60
12819;DHT22;6474;53.474;9.894;2023-07-30T14:35:54;20.40;80.70
12819;DHT22;6474;53.474;9.894;2023-07-30T14:38:23;20.50;80.70
12819;DHT22;6474;53.474;9.894;2023-07-30T14:40:51;20.50;80.50
12819;DHT22;6474;53.474;9.894;2023-07-30T14:43:21;20.60;80.40
12819;DHT22;6474;53.474;9.894;2023-07-30T14:45:49;20.60;80.10
12819;DHT22;6474;53.474;9.894;2023-07-30T14:48:17;20.70;80.30
12819;DHT22;6474;53.474;9.894;2023-07-30T14:50:49;20.80;80.30
12819;DHT22;6474;53.474;9.894;2023-07-30T14:53:17;20.80;80.10
12819;DHT22;6474;53.474;9.894;2023-07-30T14:55:46;20.90;80.20
12819;DHT22;6474;53.474;9.894;2023-07-30T14:58:14;20.90;80.10
12819;DHT22;6474;53.474;9.894;2023-07-30T15:00:42;20.80;79.90
12819;DHT22;6474;53.474;9.894;2023-07-30T15:03:11;20.80;80.10
12819;DHT22;6474;53.474;9.894;2023-07-30T15:05:40;20.70;80.00
12819;DHT22;6474;53.474;9.894;2023-07-30T15:08:10;20.70;80.10
12819;DHT22;6474;53.474;9.894;2023-07-30T15:10:37;20.70;80.40
12819;DHT22;6474;53.474;9.894;2023-07-30T15:13:06;20.70;80.40
12819;DHT22;6474;53.474;9.894;2023-07-30T15:15:34;20.80;80.40
12819;DHT22;6474;53.474;9.894;2023-07-30T15:18:02;20.80;80.30
12819;DHT22;6474;53.474;9.894;2023-07-30T15:20:34;20.90;80.50
12819;DHT22;6474;53.474;9.894;2023-07-30T15:23:02;20.90;80.40
12819;DHT22;6474;53.474;9.894;2023-07-30T15:25:31;20.90;80.30
12819;DHT22;6474;53.474;9.894;2023-07-30T15:27:59;20.80;80.20
12819;DHT22;6474;53.474;9.894;2023-07-30T15:30:29;20.80;80.40
12819;DHT22;6474;53.474;9.894;2023-07-30T15:32:57;20.80;80.30
12819;DHT22;6474;53.474;9.894;2023-07-30T15:35:25;20.80;80.30
12819;DHT22;6474;53.474;9.894;2023-07-30T15:37:54;20.70;80.40
12819;DHT22;6474;53.474;9.894;2023-07-30T15:40:21;20.60;80.50
12819;DHT22;6474;53.474;9.894;2023-07-30T15:42:51;20.50;80.70
12819;DHT22;6474;53.474;9.894;2023-07-30T15:45:19;20.40;80.70
12819;DHT22;6474;53.474;9.894;2023-07-30T15:47:47;20.30;80.80
12819;DHT22;6474;53.474;9.894;2023-07-30T15:50:16;20.20;80.90
12819;DHT22;6474;53.474;9.894;2023-07-30T15:52:45;20.20;81.10
12819;DHT22;6474;53.474;9.894;2023-07-30T15:55:14;20.10;81.10
12819;DHT22;6474;53.474;9.894;2023-07-30T15:57:42;20.00;81.20
12819;DHT22;6474;53.474;9.894;2023-07-30T16:00:12;19.90;81.30